createdAt,value
2022-12-10T00:00:40.368Z,96960.16
2022-12-10T00:04:47.803Z,96949.88
2022-12-10T00:08:51.811Z,96958.31
2022-12-10T00:12:53.784Z,96961.75
2022-12-10T00:16:55.790Z,96962.50
2022-12-10T00:20:57.858Z,96957.38
2022-12-10T00:24:59.982Z,96970.28
2022-12-10T00:29:04.299Z,96961.78
2022-12-10T00:33:06.391Z,96970.31
2022-12-10T00:37:08.434Z,96961.69
2022-12-10T00:41:11.883Z,96960.91
2022-12-10T00:45:13.867Z,96965.03
2022-12-10T00:49:15.922Z,96960.72
2022-12-10T00:53:17.924Z,96972.78
2022-12-10T00:57:19.931Z,96968.47
2022-12-10T01:01:26.189Z,96970.28
2022-12-10T01:05:28.215Z,96963.44
2022-12-10T01:09:31.391Z,96960.91
2022-12-10T01:13:33.492Z,96971.13
2022-12-10T01:17:35.581Z,96976.28
2022-12-10T01:21:38.032Z,96974.56
2022-12-10T01:25:40.021Z,96989.19
2022-12-10T01:29:42.968Z,96988.22
2022-12-10T01:33:46.148Z,96994.22
2022-12-10T01:37:48.212Z,97001.16
2022-12-10T01:41:51.984Z,96998.72
2022-12-10T01:45:54.104Z,97010.75
2022-12-10T01:49:58.454Z,97014.94
2022-12-10T01:54:01.338Z,97015.06
2022-12-10T01:58:03.644Z,97024.56
2022-12-10T02:02:30.415Z,97015.09
2022-12-10T02:06:43.312Z,97014.09
2022-12-10T02:11:20.733Z,97019.97
2022-12-10T02:15:31.398Z,97008.66
2022-12-10T02:20:02.903Z,97012.91
2022-12-10T02:24:12.441Z,97006.91
2022-12-10T02:28:38.125Z,96999.22
2022-12-10T02:32:45.383Z,97004.38
2022-12-10T02:36:53.177Z,96996.59
2022-12-10T02:41:02.425Z,96987.97
2022-12-10T02:45:06.235Z,96989.59
2022-12-10T02:49:12.680Z,96992.97
2022-12-10T02:53:14.895Z,96995.44
2022-12-10T02:57:36.322Z,96998.03
2022-12-10T03:01:56.149Z,96994.69
2022-12-10T03:06:31.179Z,96997.16
2022-12-10T03:11:06.619Z,96989.59
2022-12-10T03:15:11.592Z,96997.41
2022-12-10T03:19:19.861Z,96992.19
2022-12-10T03:23:22.441Z,96995.69
2022-12-10T03:27:25.117Z,96987.09
2022-12-10T03:31:27.538Z,96988.75
2022-12-10T03:35:30.082Z,96983.59
2022-12-10T03:39:33.228Z,96984.63
2022-12-10T03:43:35.336Z,96982.84
2022-12-10T03:47:37.411Z,96978.44
2022-12-10T03:51:39.397Z,96979.19
2022-12-10T03:55:41.372Z,96981.56
2022-12-10T03:59:43.392Z,96979.81
2022-12-10T04:03:45.670Z,96978.09
2022-12-10T04:07:48.027Z,96974.63
2022-12-10T04:11:50.082Z,96980.66
2022-12-10T04:16:10.841Z,96983.22
2022-12-10T04:20:31.169Z,96981.50
2022-12-10T04:24:54.017Z,96989.25
2022-12-10T04:28:56.046Z,96980.75
2022-12-10T04:32:58.177Z,96980.72
2022-12-10T04:37:01.507Z,96986.75
2022-12-10T04:41:03.507Z,96981.59
2022-12-10T04:45:06.131Z,96981.56
2022-12-10T04:49:08.918Z,96985.72
2022-12-10T04:53:10.923Z,96986.47
2022-12-10T04:57:12.995Z,96983.88
2022-12-10T05:01:15.303Z,96995.06
2022-12-10T05:05:17.446Z,96990.09
2022-12-10T05:09:19.562Z,96991.97
2022-12-10T05:13:21.780Z,96983.31
2022-12-10T05:17:23.817Z,96993.63
2022-12-10T05:21:46.439Z,96993.56
2022-12-10T05:25:54.083Z,96994.31
2022-12-10T05:29:56.143Z,96991.63
2022-12-10T05:33:59.017Z,96996.72
2022-12-10T05:38:01.124Z,96998.34
2022-12-10T05:42:03.268Z,97002.81
2022-12-10T05:46:07.784Z,97011.63
2022-12-10T05:50:10.156Z,97019.41
2022-12-10T05:54:12.535Z,97010.84
2022-12-10T05:58:15.077Z,97017.66
2022-12-10T06:02:17.139Z,97016.84
2022-12-10T06:06:30.286Z,97022.06
2022-12-10T06:10:35.824Z,97023.75
2022-12-10T06:14:37.828Z,97024.56
2022-12-10T06:18:40.729Z,97021.13
2022-12-10T06:22:42.753Z,97027.13
2022-12-10T06:26:44.762Z,97029.81
2022-12-10T06:30:46.831Z,97030.75
2022-12-10T06:34:48.854Z,97036.81
2022-12-10T06:38:51.076Z,97030.06
2022-12-10T06:42:53.489Z,97037.81
2022-12-10T06:46:55.525Z,97038.81
2022-12-10T06:50:57.574Z,97047.50
2022-12-10T06:54:59.642Z,97064.69
2022-12-10T06:59:05.492Z,97066.41
2022-12-10T07:03:07.498Z,97067.31
2022-12-10T07:07:09.944Z,97074.25
2022-12-10T07:11:14.659Z,97070.06
2022-12-10T07:15:16.868Z,97069.22
2022-12-10T07:19:19.024Z,97064.91
2022-12-10T07:23:21.571Z,97078.59
2022-12-10T07:27:23.582Z,97084.63
2022-12-10T07:31:26.542Z,97084.59
2022-12-10T07:35:28.700Z,97092.34
2022-12-10T07:39:30.786Z,97094.91
2022-12-10T07:43:37.687Z,97097.41
2022-12-10T07:47:42.845Z,97095.78
2022-12-10T07:51:49.753Z,97092.31
2022-12-10T07:55:51.798Z,97100.00
2022-12-10T07:59:53.763Z,97098.13
2022-12-10T08:03:59.931Z,97104.81
2022-12-10T08:08:06.625Z,97110.69
2022-12-10T08:12:09.825Z,97112.34
2022-12-10T08:16:20.442Z,97109.91
2022-12-10T08:20:23.549Z,97108.19
2022-12-10T08:24:25.607Z,97123.56
2022-12-10T08:28:27.583Z,97125.22
2022-12-10T08:32:29.533Z,97132.03
2022-12-10T08:36:31.682Z,97117.41
2022-12-10T08:40:33.884Z,97129.94
2022-12-10T08:44:36.529Z,97126.06
2022-12-10T08:48:39.263Z,97128.22
2022-12-10T08:52:41.362Z,97129.25
2022-12-10T08:56:43.365Z,97139.69
2022-12-10T09:00:45.892Z,97145.84
2022-12-10T09:04:50.273Z,97147.69
2022-12-10T09:08:52.713Z,97147.72
2022-12-10T09:12:59.901Z,97157.25
2022-12-10T09:17:05.678Z,97164.28
2022-12-10T09:21:17.265Z,97169.50
2022-12-10T09:25:22.194Z,97171.16
2022-12-10T09:29:24.231Z,97175.31
2022-12-10T09:33:27.509Z,97171.19
2022-12-10T09:37:29.543Z,97171.25
2022-12-10T09:41:44.563Z,97166.94
2022-12-10T09:46:28.075Z,97163.34
2022-12-10T09:50:47.335Z,97158.94
2022-12-10T09:54:59.913Z,97158.75
2022-12-10T09:59:17.797Z,97157.78
2022-12-10T10:03:19.798Z,97154.31
2022-12-10T10:07:25.404Z,97154.22
2022-12-10T10:11:33.478Z,97155.16
2022-12-10T10:15:39.110Z,97149.91
2022-12-10T10:19:42.201Z,97157.50
2022-12-10T10:23:45.937Z,97157.78
2022-12-10T10:27:48.005Z,97162.16
2022-12-10T10:32:14.480Z,97159.53
2022-12-10T10:36:16.488Z,97166.25
2022-12-10T10:40:40.266Z,97160.09
2022-12-10T10:44:42.810Z,97147.44
2022-12-10T10:48:45.199Z,97153.44
2022-12-10T10:52:47.200Z,97156.47
2022-12-10T10:56:49.331Z,97158.09
2022-12-10T11:00:59.256Z,97159.59
2022-12-10T11:05:07.780Z,97163.84
2022-12-10T11:09:20.849Z,97170.72
2022-12-10T11:13:28.074Z,97162.88
2022-12-10T11:17:30.165Z,97159.25
2022-12-10T11:21:34.169Z,97164.03
2022-12-10T11:26:04.321Z,97163.03
2022-12-10T11:30:12.192Z,97159.31
2022-12-10T11:34:45.487Z,97172.22
2022-12-10T11:39:29.739Z,97166.50
2022-12-10T11:43:39.603Z,97166.50
2022-12-10T11:48:05.852Z,97164.69
2022-12-10T11:52:27.039Z,97174.84
2022-12-10T11:56:35.838Z,97172.03
2022-12-10T12:01:02.956Z,97176.28
2022-12-10T12:05:35.447Z,97178.25
2022-12-10T12:09:54.363Z,97175.88
2022-12-10T12:14:13.231Z,97184.47
2022-12-10T12:18:28.829Z,97185.25
2022-12-10T12:22:37.161Z,97180.00
2022-12-10T12:26:47.129Z,97191.94
2022-12-10T12:30:58.511Z,97186.69
2022-12-10T12:35:02.848Z,97185.34
2022-12-10T12:39:35.049Z,97188.72
2022-12-10T12:43:37.021Z,97192.16
2022-12-10T12:48:01.207Z,97187.94
2022-12-10T12:52:21.367Z,97201.09
2022-12-10T12:56:53.696Z,97205.50
2022-12-10T13:01:01.768Z,97206.31
2022-12-10T13:05:04.606Z,97197.81
2022-12-10T13:09:12.756Z,97198.06
2022-12-10T13:13:25.450Z,97200.13
2022-12-10T13:17:36.587Z,97200.34
2022-12-10T13:21:56.948Z,97208.84
2022-12-10T13:26:00.636Z,97214.94
2022-12-10T13:30:27.038Z,97219.38
2022-12-10T13:34:37.941Z,97214.03
2022-12-10T13:38:56.992Z,97216.44
2022-12-10T13:43:56.373Z,97226.19
2022-12-10T13:48:10.853Z,97231.50
2022-12-10T13:52:26.081Z,97235.00
2022-12-10T13:56:36.667Z,97243.69
2022-12-10T14:01:16.883Z,97253.31
2022-12-10T14:05:41.281Z,97253.56
2022-12-10T14:09:50.889Z,97255.19
2022-12-10T14:13:58.843Z,97261.00
2022-12-10T14:18:02.581Z,97266.13
2022-12-10T14:22:07.777Z,97266.06
2022-12-10T14:26:16.782Z,97267.78
2022-12-10T14:30:27.532Z,97278.25
2022-12-10T14:34:30.246Z,97288.72
2022-12-10T14:38:35.217Z,97289.75
2022-12-10T14:42:40.490Z,97288.13
2022-12-10T14:46:43.328Z,97293.25
2022-12-10T14:50:46.860Z,97294.91
2022-12-10T14:54:49.466Z,97294.28
2022-12-10T14:59:02.707Z,97297.00
2022-12-10T15:03:11.054Z,97304.88
2022-12-10T15:07:21.604Z,97303.16
2022-12-10T15:11:26.118Z,97308.16
2022-12-10T15:15:40.383Z,97308.00
2022-12-10T15:19:42.422Z,97313.06
2022-12-10T15:23:46.274Z,97308.75
2022-12-10T15:27:58.525Z,97303.66
2022-12-10T15:32:06.165Z,97318.28
2022-12-10T15:36:18.732Z,97310.41
2022-12-10T15:40:28.725Z,97312.88
2022-12-10T15:44:30.750Z,97311.13
2022-12-10T15:48:32.868Z,97307.59
2022-12-10T15:52:35.662Z,97315.34
2022-12-10T15:56:37.628Z,97315.47
2022-12-10T16:00:44.529Z,97315.56
2022-12-10T16:04:46.796Z,97326.84
2022-12-10T16:08:48.804Z,97323.63
2022-12-10T16:13:01.731Z,97327.28
2022-12-10T16:17:03.783Z,97329.06
2022-12-10T16:21:07.714Z,97311.94
2022-12-10T16:25:09.853Z,97324.94
2022-12-10T16:29:11.860Z,97329.25
2022-12-10T16:33:14.190Z,97330.09
2022-12-10T16:37:16.185Z,97337.81
2022-12-10T16:41:22.715Z,97334.44
2022-12-10T16:45:28.106Z,97336.19
2022-12-10T16:49:30.095Z,97339.56
2022-12-10T16:53:36.821Z,97333.53
2022-12-10T16:57:41.191Z,97342.13
2022-12-10T17:01:43.258Z,97343.84
2022-12-10T17:05:46.365Z,97350.66
2022-12-10T17:09:48.433Z,97350.66
2022-12-10T17:13:51.451Z,97350.59
2022-12-10T17:17:53.530Z,97356.56
2022-12-10T17:21:55.684Z,97364.34
2022-12-10T17:25:58.325Z,97355.00
2022-12-10T17:30:00.428Z,97359.31
2022-12-10T17:34:02.463Z,97365.38
2022-12-10T17:38:04.507Z,97362.81
2022-12-10T17:42:08.385Z,97374.88
2022-12-10T17:46:12.752Z,97386.09
2022-12-10T17:50:36.083Z,97380.97
2022-12-10T17:54:38.132Z,97384.44
2022-12-10T17:58:40.590Z,97391.31
2022-12-10T18:02:42.744Z,97388.91
2022-12-10T18:06:45.368Z,97394.16
2022-12-10T18:10:47.354Z,97393.47
2022-12-10T18:14:49.445Z,97390.09
2022-12-10T18:18:51.636Z,97382.31
2022-12-10T18:22:54.206Z,97388.25
2022-12-10T18:26:57.834Z,97401.16
2022-12-10T18:31:02.747Z,97403.75
2022-12-10T18:35:05.631Z,97402.97
2022-12-10T18:39:18.197Z,97415.06
2022-12-10T18:43:20.203Z,97408.28
2022-12-10T18:47:22.575Z,97409.22
2022-12-10T18:51:25.155Z,97398.13
2022-12-10T18:55:27.214Z,97409.25
2022-12-10T18:59:29.678Z,97414.47
2022-12-10T19:03:31.697Z,97414.44
2022-12-10T19:07:34.151Z,97415.28
2022-12-10T19:11:36.357Z,97409.16
2022-12-10T19:15:42.664Z,97409.97
2022-12-10T19:19:45.314Z,97405.69
2022-12-10T19:23:47.562Z,97405.63
2022-12-10T19:27:49.673Z,97406.56
2022-12-10T19:31:52.493Z,97408.34
2022-12-10T19:35:54.475Z,97404.06
2022-12-10T19:39:56.465Z,97411.94
2022-12-10T19:43:58.453Z,97408.56
2022-12-10T19:48:00.981Z,97411.84
2022-12-10T19:52:03.168Z,97416.16
2022-12-10T19:56:32.544Z,97410.31
2022-12-10T20:00:34.800Z,97414.59
2022-12-10T20:04:36.821Z,97407.69
2022-12-10T20:08:38.909Z,97410.25
2022-12-10T20:12:40.897Z,97418.84
2022-12-10T20:16:43.396Z,97423.09
2022-12-10T20:20:45.364Z,97427.41
2022-12-10T20:24:47.742Z,97413.66
2022-12-10T20:28:50.627Z,97416.25
2022-12-10T20:32:52.704Z,97423.13
2022-12-10T20:36:54.826Z,97412.91
2022-12-10T20:40:57.202Z,97412.91
2022-12-10T20:44:59.271Z,97410.25
2022-12-10T20:49:01.378Z,97414.59
2022-12-10T20:53:03.662Z,97409.47
2022-12-10T20:57:05.866Z,97414.69
2022-12-10T21:01:08.117Z,97410.53
2022-12-10T21:05:10.552Z,97413.91
2022-12-10T21:09:13.727Z,97415.53
2022-12-10T21:13:15.788Z,97412.09
2022-12-10T21:17:17.932Z,97404.41
2022-12-10T21:21:21.955Z,97406.16
2022-12-10T21:25:24.155Z,97402.72
2022-12-10T21:29:26.251Z,97405.22
2022-12-10T21:33:28.406Z,97405.16
2022-12-10T21:37:30.431Z,97395.69
2022-12-10T21:41:50.780Z,97392.22
2022-12-10T21:45:55.350Z,97400.78
2022-12-10T21:49:57.435Z,97386.91
2022-12-10T21:53:59.938Z,97391.22
2022-12-10T21:58:03.019Z,97399.78
2022-12-10T22:02:05.150Z,97402.44
2022-12-10T22:06:08.612Z,97397.31
2022-12-10T22:10:12.879Z,97397.28
2022-12-10T22:14:14.992Z,97397.34
2022-12-10T22:18:17.287Z,97388.88
2022-12-10T22:22:19.670Z,97388.16
2022-12-10T22:26:22.833Z,97387.34
2022-12-10T22:30:25.251Z,97389.09
2022-12-10T22:34:27.692Z,97377.91
2022-12-10T22:38:29.956Z,97383.91
2022-12-10T22:42:38.255Z,97390.78
2022-12-10T22:46:40.292Z,97382.22
2022-12-10T22:50:42.324Z,97381.47
2022-12-10T22:54:44.408Z,97383.31
2022-12-10T22:58:46.495Z,97387.63
2022-12-10T23:02:50.297Z,97386.00
2022-12-10T23:06:52.331Z,97389.44
2022-12-10T23:10:54.355Z,97379.19
2022-12-10T23:14:59.544Z,97380.91
2022-12-10T23:19:01.545Z,97375.75
2022-12-10T23:23:03.800Z,97377.47
2022-12-10T23:27:05.973Z,97375.75
2022-12-10T23:31:08.531Z,97386.84
2022-12-10T23:35:11.393Z,97377.44
2022-12-10T23:39:13.571Z,97369.75
2022-12-10T23:43:15.596Z,97373.19
2022-12-10T23:47:18.424Z,97375.72
2022-12-10T23:51:20.785Z,97375.75
2022-12-10T23:55:22.840Z,97370.56
2022-12-10T23:59:24.900Z,97381.69
